Time;durP1;ratioP1;P1;durP2;ratioP2;P2;SDS_P1;SDS_P2;PMS_P1;PMS_P2;Temp;Humidity;BMP_temperature;BMP_pressure;BME280_temperature;BME280_humidity;BME280_pressure;Samples;Min_cycle;Max_cycle;Signal;HPM_P1;HPM_P2
2024/01/21 00:00:25;;;;;;;;;;;;;;;-140.72;0.00;52636.38;5058909;27;19953;-71
2024/01/21 00:02:50;;;;;;;;;;;;;;;-140.72;0.00;52614.06;5039083;28;20290;-71
2024/01/21 00:05:15;;;;;;;;;;;;;;;-140.72;0.00;52622.19;5047615;28;20035;-71
2024/01/21 00:07:40;;;;;;;;;;;;;;;-140.72;0.00;52616.09;5060122;27;19956;-70
2024/01/21 00:10:07;;;;;;;;;;;;;;;-140.72;0.00;52638.41;5055009;27;20019;-70
2024/01/21 00:12:32;;;;;;;;;;;;;;;-140.72;0.00;52614.06;5086714;27;20003;-70
2024/01/21 00:14:57;;;;;;;;;;;;;;;-140.72;0.00;52636.38;5044816;28;20441;-71
2024/01/21 00:17:22;;;;;;;;;;;;;;;-140.72;0.00;52626.25;5045113;28;20345;-69
2024/01/21 00:19:47;;;;;;;;;;;;;;;-140.72;0.00;52601.91;5067126;27;19961;-70
2024/01/21 00:22:13;;;;;;;;;;;;;;;-140.72;0.00;52638.41;5077066;27;19921;-70
2024/01/21 00:24:38;;;;;;;;;;;;;;;-140.72;0.00;52612.03;5035912;27;19956;-71
2024/01/21 00:27:03;;;;;;;;;;;;;;;-140.72;0.00;52622.19;5041646;28;19952;-70
2024/01/21 00:29:28;;;;;;;;;;;;;;;-140.72;0.00;52603.94;5035262;27;20365;-71
2024/01/21 00:31:54;;;;;;;;;;;;;;;-140.72;0.00;52638.41;5048974;28;20409;-69
2024/01/21 00:34:19;;;;;;;;;;;;;;;-140.72;0.00;52587.69;5077677;27;20019;-69
2024/01/21 00:36:44;;;;;;;;;;;;;;;-140.72;0.00;52654.66;5084073;27;19929;-69
2024/01/21 00:39:09;;;;;;;;;;;;;;;-140.72;0.00;52626.25;5114395;27;19992;-70
2024/01/21 00:41:34;;;;;;;;;;;;;;;-140.72;0.00;52634.38;5102584;27;19963;-70
2024/01/21 00:44:00;;;;;;;;;;;;;;;-140.72;0.00;52618.13;5104489;27;20414;-70
2024/01/21 00:46:25;;;;;;;;;;;;;;;-140.72;0.00;52628.28;5086204;27;19922;-70
2024/01/21 00:48:50;;;;;;;;;;;;;;;-140.72;0.00;52628.28;5094548;27;19972;-70
2024/01/21 00:51:16;;;;;;;;;;;;;;;-140.72;0.00;52614.06;5105047;27;19921;-70
2024/01/21 00:53:41;;;;;;;;;;;;;;;-140.72;0.00;52589.72;5101297;27;19927;-70
2024/01/21 00:56:06;;;;;;;;;;;;;;;-140.72;0.00;52622.19;5108339;27;19919;-70
2024/01/21 00:58:31;;;;;;;;;;;;;;;-140.72;0.00;52618.13;5101336;27;19939;-69
2024/01/21 01:00:57;;;;;;;;;;;;;;;-140.72;0.00;52650.59;5092627;27;19931;-69
2024/01/21 01:03:22;;;;;;;;;;;;;;;-140.72;0.00;52614.06;5109905;27;19919;-70
2024/01/21 01:05:47;;;;;;;;;;;;;;;-140.72;0.00;52610.00;5114804;27;19919;-70
2024/01/21 01:08:12;;;;;;;;;;;;;;;-140.72;0.00;52593.78;5102091;27;19965;-70
2024/01/21 01:10:38;;;;;;;;;;;;;;;-140.72;0.00;52603.94;5077266;27;20333;-70
2024/01/21 01:13:03;;;;;;;;;;;;;;;-140.72;0.00;52597.84;5097455;27;20357;-70
2024/01/21 01:15:28;;;;;;;;;;;;;;;-140.72;0.00;52638.41;5064086;27;19921;-70
2024/01/21 01:17:54;;;;;;;;;;;;;;;-140.72;0.00;52607.97;5076885;27;19921;-71
2024/01/21 01:20:19;;;;;;;;;;;;;;;-140.72;0.00;52583.63;5113220;27;19947;-70
2024/01/21 01:22:44;;;;;;;;;;;;;;;-140.72;0.00;52618.13;5112291;27;19971;-71
2024/01/21 01:25:10;;;;;;;;;;;;;;;-140.72;0.00;52650.59;5100245;27;19928;-70
2024/01/21 01:27:35;;;;;;;;;;;;;;;-140.72;0.00;52644.50;5105070;27;19920;-70
2024/01/21 01:30:00;;;;;;;;;;;;;;;-140.72;0.00;52573.50;5109487;27;19928;-70
2024/01/21 01:32:26;;;;;;;;;;;;;;;-140.72;0.00;52630.31;5111233;27;19919;-70
2024/01/21 01:34:54;;;;;;;;;;;;;;;-140.72;0.00;52650.59;5091591;27;19928;-70
2024/01/21 01:37:20;;;;;;;;;;;;;;;-140.72;0.00;52634.38;5078139;27;20018;-69
2024/01/21 01:39:45;;;;;;;;;;;;;;;-140.72;0.00;52630.31;5090411;27;20055;-70
2024/01/21 01:42:10;;;;;;;;;;;;;;;-140.72;0.00;52607.97;5086424;27;20292;-70
2024/01/21 01:44:40;;;;;;;;;;;;;;;-140.72;0.00;52589.72;5084718;27;19925;-70
2024/01/21 01:47:05;;;;;;;;;;;;;;;-140.72;0.00;52587.69;5108039;27;20389;-70
2024/01/21 01:49:31;;;;;;;;;;;;;;;-140.72;0.00;52573.50;5086286;27;19929;-70
2024/01/21 01:51:57;;;;;;;;;;;;;;;-140.72;0.00;52618.13;5108405;27;20382;-70
2024/01/21 01:54:23;;;;;;;;;;;;;;;-140.72;0.00;52593.78;5115189;27;19927;-72
2024/01/21 01:56:48;;;;;;;;;;;;;;;-140.72;0.00;52614.06;5062581;27;19928;-70
2024/01/21 01:59:15;;;;;;;;;;;;;;;-140.72;0.00;52605.94;5094235;27;20345;-70
2024/01/21 02:01:40;;;;;;;;;;;;;;;-140.72;0.00;52622.19;5118954;27;19957;-70
2024/01/21 02:04:07;;;;;;;;;;;;;;;-140.72;0.00;52593.78;5107488;27;20324;-69
2024/01/21 02:06:33;;;;;;;;;;;;;;;-140.72;0.00;52601.91;5114665;27;19924;-70
2024/01/21 02:08:58;;;;;;;;;;;;;;;-140.72;0.00;52597.84;5091168;27;19921;-70
2024/01/21 02:11:23;;;;;;;;;;;;;;;-140.72;0.00;52610.00;5090675;27;19928;-70
2024/01/21 02:13:49;;;;;;;;;;;;;;;-140.72;0.00;52583.63;5106438;27;19930;-70
2024/01/21 02:16:14;;;;;;;;;;;;;;;-140.72;0.00;52610.00;5109761;27;20612;-70
2024/01/21 02:18:42;;;;;;;;;;;;;;;-140.72;0.00;52605.94;5108199;27;19950;-70
2024/01/21 02:21:07;;;;;;;;;;;;;;;-140.72;0.00;52591.75;5106748;27;19930;-70
2024/01/21 02:23:32;;;;;;;;;;;;;;;-140.72;0.00;52632.34;5125314;27;20005;-69
2024/01/21 02:25:58;;;;;;;;;;;;;;;-140.72;0.00;52622.19;5092162;27;19921;-70
2024/01/21 02:28:23;;;;;;;;;;;;;;;-140.72;0.00;52610.00;5103018;27;20033;-69
2024/01/21 02:30:48;;;;;;;;;;;;;;;-140.72;0.00;52632.34;5089026;27;19923;-69
2024/01/21 02:33:13;;;;;;;;;;;;;;;-140.72;0.00;52601.91;5131514;27;19926;-70
2024/01/21 02:35:39;;;;;;;;;;;;;;;-140.72;0.00;52648.56;5074576;27;20294;-69
2024/01/21 02:38:04;;;;;;;;;;;;;;;-140.72;0.00;52595.81;5102108;27;19991;-70
2024/01/21 02:40:29;;;;;;;;;;;;;;;-140.72;0.00;52616.09;5105097;27;19969;-69
2024/01/21 02:42:55;;;;;;;;;;;;;;;-140.72;0.00;52626.25;5086034;27;19919;-69
2024/01/21 02:45:20;;;;;;;;;;;;;;;-140.72;0.00;52599.88;5103375;27;19926;-69
2024/01/21 02:47:45;;;;;;;;;;;;;;;-140.72;0.00;52614.06;5084444;27;20013;-69
2024/01/21 02:50:10;;;;;;;;;;;;;;;-140.72;0.00;52605.94;5067064;27;19969;-69
2024/01/21 02:52:36;;;;;;;;;;;;;;;-140.72;0.00;52654.66;5121889;27;19923;-69
2024/01/21 02:55:01;;;;;;;;;;;;;;;-140.72;0.00;52593.78;5113363;27;20381;-69
2024/01/21 02:57:26;;;;;;;;;;;;;;;-140.72;0.00;52597.84;5089934;27;20405;-69
2024/01/21 02:59:51;;;;;;;;;;;;;;;-140.72;0.00;52689.16;5104950;27;19928;-71
2024/01/21 03:02:16;;;;;;;;;;;;;;;-140.72;0.00;52593.78;5106582;27;19924;-70
2024/01/21 03:04:42;;;;;;;;;;;;;;;-140.72;0.00;52630.31;5096990;27;19932;-69
2024/01/21 03:07:07;;;;;;;;;;;;;;;-140.72;0.00;52605.94;5116077;27;19942;-69
2024/01/21 03:09:32;;;;;;;;;;;;;;;-140.72;0.00;52626.25;5121466;27;19928;-69
2024/01/21 03:11:57;;;;;;;;;;;;;;;-140.72;0.00;52612.03;5082459;27;19942;-70
2024/01/21 03:14:23;;;;;;;;;;;;;;;-140.72;0.00;52557.25;5094864;27;19942;-71
2024/01/21 03:16:48;;;;;;;;;;;;;;;-140.72;0.00;52587.69;5105039;27;19928;-70
2024/01/21 03:19:14;;;;;;;;;;;;;;;-140.72;0.00;52616.09;5097819;27;20270;-69
2024/01/21 03:21:39;;;;;;;;;;;;;;;-140.72;0.00;52571.47;5102847;27;20444;-70
2024/01/21 03:24:05;;;;;;;;;;;;;;;-140.72;0.00;52610.00;5084619;27;19925;-70
2024/01/21 03:26:30;;;;;;;;;;;;;;;-140.72;0.00;52622.19;5080422;27;20024;-70
2024/01/21 03:28:56;;;;;;;;;;;;;;;-140.72;0.00;52666.84;5098543;27;19926;-70
2024/01/21 03:31:22;;;;;;;;;;;;;;;-140.72;0.00;52587.69;5104284;27;20346;-70
2024/01/21 03:33:47;;;;;;;;;;;;;;;-140.72;0.00;52618.13;5079342;27;19925;-70
2024/01/21 03:36:12;;;;;;;;;;;;;;;-140.72;0.00;52676.97;5058005;27;20019;-70
2024/01/21 03:38:39;;;;;;;;;;;;;;;-140.72;0.00;52624.22;5094893;27;19927;-70
2024/01/21 03:41:04;;;;;;;;;;;;;;;-140.72;0.00;52626.25;5089706;27;19926;-70
2024/01/21 03:43:29;;;;;;;;;;;;;;;-140.72;0.00;52563.34;5106645;27;19919;-70
2024/01/21 03:45:54;;;;;;;;;;;;;;;-140.72;0.00;52589.72;5092345;27;19930;-70
2024/01/21 03:48:20;;;;;;;;;;;;;;;-140.72;0.00;52601.91;5118142;27;19919;-70
2024/01/21 03:50:45;;;;;;;;;;;;;;;-140.72;0.00;52620.16;5103940;27;19929;-70
2024/01/21 03:53:10;;;;;;;;;;;;;;;-140.72;0.00;52593.78;5069863;27;19974;-70
2024/01/21 03:55:35;;;;;;;;;;;;;;;-140.72;0.00;52595.81;5097272;27;19923;-70
2024/01/21 03:58:01;;;;;;;;;;;;;;;-140.72;0.00;52563.34;5082153;27;19970;-70
2024/01/21 04:00:26;;;;;;;;;;;;;;;-140.72;0.00;52610.00;5063582;27;19929;-70
2024/01/21 04:02:51;;;;;;;;;;;;;;;-140.72;0.00;52614.06;5100284;27;19927;-70
2024/01/21 04:05:16;;;;;;;;;;;;;;;-140.72;0.00;52622.19;5092143;27;19931;-70
2024/01/21 04:07:42;;;;;;;;;;;;;;;-140.72;0.00;52642.47;5083197;27;20115;-69
2024/01/21 04:10:07;;;;;;;;;;;;;;;-140.72;0.00;52607.97;5106628;27;19968;-70
2024/01/21 04:12:33;;;;;;;;;;;;;;;-140.72;0.00;52599.88;5093426;27;20352;-70
2024/01/21 04:14:58;;;;;;;;;;;;;;;-140.72;0.00;52585.66;5087901;27;20371;-70
2024/01/21 04:17:23;;;;;;;;;;;;;;;-140.72;0.00;52597.84;5072521;27;20367;-70
2024/01/21 04:19:48;;;;;;;;;;;;;;;-140.72;0.00;52601.91;5083354;27;19921;-70
2024/01/21 04:22:14;;;;;;;;;;;;;;;-140.72;0.00;52565.38;5098285;27;19923;-70
2024/01/21 04:24:39;;;;;;;;;;;;;;;-140.72;0.00;52616.09;5087203;27;20054;-71
2024/01/21 04:27:05;;;;;;;;;;;;;;;-140.72;0.00;52597.84;5095615;27;20395;-71
2024/01/21 04:29:30;;;;;;;;;;;;;;;-140.72;0.00;52622.19;5092025;27;20330;-71
2024/01/21 04:31:55;;;;;;;;;;;;;;;-140.72;0.00;52642.47;5069943;27;19921;-71
2024/01/21 04:34:20;;;;;;;;;;;;;;;-140.72;0.00;52583.63;5087419;27;19927;-71
2024/01/21 04:36:45;;;;;;;;;;;;;;;-140.72;0.00;52589.72;5113215;27;19925;-71
2024/01/21 04:39:11;;;;;;;;;;;;;;;-140.72;0.00;52589.72;5084478;27;20008;-70
2024/01/21 04:41:36;;;;;;;;;;;;;;;-140.72;0.00;52593.78;5108071;27;19927;-70
2024/01/21 04:44:01;;;;;;;;;;;;;;;-140.72;0.00;52612.03;5096132;27;19924;-70
2024/01/21 04:46:27;;;;;;;;;;;;;;;-140.72;0.00;52610.00;5099073;27;19934;-70
2024/01/21 04:48:52;;;;;;;;;;;;;;;-140.72;0.00;52553.19;5100770;27;20387;-70
2024/01/21 04:51:17;;;;;;;;;;;;;;;-140.72;0.00;52605.94;5084287;27;19930;-70
2024/01/21 04:53:43;;;;;;;;;;;;;;;-140.72;0.00;52585.66;5086270;27;19948;-71
2024/01/21 04:56:15;;;;;;;;;;;;;;;-140.72;0.00;52589.72;5096743;27;20285;-70
2024/01/21 04:58:40;;;;;;;;;;;;;;;-140.72;0.00;52589.72;5078445;27;19928;-71
2024/01/21 05:01:05;;;;;;;;;;;;;;;-140.72;0.00;52553.19;5098453;27;19929;-71
2024/01/21 05:03:30;;;;;;;;;;;;;;;-140.72;0.00;52571.47;5069393;27;20386;-71
2024/01/21 05:05:57;;;;;;;;;;;;;;;-140.72;0.00;52605.94;5101784;27;19919;-70
2024/01/21 05:08:22;;;;;;;;;;;;;;;-140.72;0.00;52563.34;5098542;27;20018;-70
2024/01/21 05:10:47;;;;;;;;;;;;;;;-140.72;0.00;52595.81;5080441;27;19940;-70
2024/01/21 05:13:12;;;;;;;;;;;;;;;-140.72;0.00;52585.66;5095291;27;20405;-70
2024/01/21 05:15:38;;;;;;;;;;;;;;;-140.72;0.00;52575.50;5097483;27;19960;-70
2024/01/21 05:18:04;;;;;;;;;;;;;;;-140.72;0.00;52593.78;5076702;27;19920;-70
2024/01/21 05:20:29;;;;;;;;;;;;;;;-140.72;0.00;52569.44;5109167;27;19934;-70
2024/01/21 05:22:54;;;;;;;;;;;;;;;-140.72;0.00;52612.03;5063953;27;19922;-70
2024/01/21 05:25:20;;;;;;;;;;;;;;;-140.72;0.00;52589.72;5071063;27;20012;-70
2024/01/21 05:27:45;;;;;;;;;;;;;;;-140.72;0.00;52569.44;5076704;27;19959;-70
2024/01/21 05:30:12;;;;;;;;;;;;;;;-140.72;0.00;52571.47;5094186;27;19919;-70
2024/01/21 05:32:37;;;;;;;;;;;;;;;-140.72;0.00;52587.69;5087272;27;19991;-70
2024/01/21 05:35:02;;;;;;;;;;;;;;;-140.72;0.00;52603.94;5071906;27;20377;-70
2024/01/21 05:37:28;;;;;;;;;;;;;;;-140.72;0.00;52597.84;5070669;27;19924;-69
2024/01/21 05:39:53;;;;;;;;;;;;;;;-140.72;0.00;52573.50;5082461;27;19926;-70
2024/01/21 05:42:18;;;;;;;;;;;;;;;-140.72;0.00;52597.84;5068758;27;20366;-69
2024/01/21 05:44:43;;;;;;;;;;;;;;;-140.72;0.00;52601.91;5098496;27;19919;-70
2024/01/21 05:47:08;;;;;;;;;;;;;;;-140.72;0.00;52573.50;5108243;27;20356;-70
2024/01/21 05:49:34;;;;;;;;;;;;;;;-140.72;0.00;52534.94;5079459;27;20370;-70
2024/01/21 05:51:59;;;;;;;;;;;;;;;-140.72;0.00;52557.25;5077896;27;20072;-70
2024/01/21 05:54:27;;;;;;;;;;;;;;;-140.72;0.00;52545.06;5093158;27;20369;-70
2024/01/21 05:56:52;;;;;;;;;;;;;;;-140.72;0.00;52573.50;5085624;27;19920;-71
2024/01/21 05:59:19;;;;;;;;;;;;;;;-140.72;0.00;52593.78;5094987;27;20456;-70
2024/01/21 06:01:47;;;;;;;;;;;;;;;-140.72;0.00;52569.44;5084830;27;19921;-70
2024/01/21 06:04:12;;;;;;;;;;;;;;;-140.72;0.00;52565.38;5077758;27;19972;-75
2024/01/21 06:06:37;;;;;;;;;;;;;;;-140.72;0.00;52593.78;5106891;27;20285;-71
2024/01/21 06:09:03;;;;;;;;;;;;;;;-140.72;0.00;52545.06;5077458;27;19926;-73
2024/01/21 06:11:28;;;;;;;;;;;;;;;-140.72;0.00;52557.25;5068692;27;19963;-71
2024/01/21 06:13:54;;;;;;;;;;;;;;;-140.72;0.00;52514.63;5085677;27;20491;-70
2024/01/21 06:16:19;;;;;;;;;;;;;;;-140.72;0.00;52569.44;5088942;27;19919;-73
2024/01/21 06:18:44;;;;;;;;;;;;;;;-140.72;0.00;52581.59;5088143;27;19955;-70
2024/01/21 06:21:09;;;;;;;;;;;;;;;-140.72;0.00;52536.97;5106164;27;20006;-70
2024/01/21 06:23:34;;;;;;;;;;;;;;;-140.72;0.00;52559.28;5079437;27;20058;-70
2024/01/21 06:26:00;;;;;;;;;;;;;;;-140.72;0.00;52532.91;5088152;27;20361;-70
2024/01/21 06:28:25;;;;;;;;;;;;;;;-140.72;0.00;52557.25;5088709;27;19920;-72
2024/01/21 06:30:50;;;;;;;;;;;;;;;-140.72;0.00;52573.50;5057049;27;19932;-70
2024/01/21 06:33:15;;;;;;;;;;;;;;;-140.72;0.00;52549.13;5069130;27;19948;-71
2024/01/21 06:35:40;;;;;;;;;;;;;;;-140.72;0.00;52534.94;5067740;27;20024;-73
2024/01/21 06:38:06;;;;;;;;;;;;;;;-140.72;0.00;52593.78;5066015;27;20012;-70
2024/01/21 06:40:31;;;;;;;;;;;;;;;-140.72;0.00;52581.59;5063694;27;19951;-70
2024/01/21 06:42:56;;;;;;;;;;;;;;;-140.72;0.00;52541.03;5079752;27;20020;-70
2024/01/21 06:45:21;;;;;;;;;;;;;;;-140.72;0.00;52593.78;5086200;27;20013;-69
2024/01/21 06:47:46;;;;;;;;;;;;;;;-140.72;0.00;52549.13;5104312;27;19922;-70
2024/01/21 06:50:12;;;;;;;;;;;;;;;-140.72;0.00;52583.63;5091368;27;19919;-70
2024/01/21 06:52:37;;;;;;;;;;;;;;;-140.72;0.00;52610.00;5089896;27;19931;-70
2024/01/21 06:55:03;;;;;;;;;;;;;;;-140.72;0.00;52616.09;5097318;27;20043;-70
2024/01/21 06:57:28;;;;;;;;;;;;;;;-140.72;0.00;52607.97;5076114;27;19927;-70
2024/01/21 06:59:53;;;;;;;;;;;;;;;-140.72;0.00;52593.78;5088386;27;19924;-70
2024/01/21 07:02:18;;;;;;;;;;;;;;;-140.72;0.00;52591.75;5115026;27;19919;-71
2024/01/21 07:04:44;;;;;;;;;;;;;;;-140.72;0.00;52561.31;5077226;27;19920;-71
2024/01/21 07:07:09;;;;;;;;;;;;;;;-140.72;0.00;52573.50;5094920;27;20360;-70
2024/01/21 07:09:34;;;;;;;;;;;;;;;-140.72;0.00;52571.47;5083312;27;19937;-71
2024/01/21 07:12:00;;;;;;;;;;;;;;;-140.72;0.00;52581.59;5068456;27;19936;-70
2024/01/21 07:14:25;;;;;;;;;;;;;;;-140.72;0.00;52545.06;5096707;27;20111;-70
2024/01/21 07:16:50;;;;;;;;;;;;;;;-140.72;0.00;52569.44;5082993;27;19919;-70
2024/01/21 07:19:15;;;;;;;;;;;;;;;-140.72;0.00;52547.09;5082013;27;19919;-72
2024/01/21 07:21:41;;;;;;;;;;;;;;;-140.72;0.00;52605.94;5093032;27;19969;-71
2024/01/21 07:24:06;;;;;;;;;;;;;;;-140.72;0.00;52585.66;5080350;27;19934;-70
2024/01/21 07:26:31;;;;;;;;;;;;;;;-140.72;0.00;52583.63;5081088;27;19933;-71
2024/01/21 07:28:57;;;;;;;;;;;;;;;-140.72;0.00;52555.22;5102224;27;20037;-72
2024/01/21 07:31:22;;;;;;;;;;;;;;;-140.72;0.00;52587.69;5068512;27;19925;-70
2024/01/21 07:33:47;;;;;;;;;;;;;;;-140.72;0.00;52567.41;5103020;27;19930;-72
2024/01/21 07:36:12;;;;;;;;;;;;;;;-140.72;0.00;52569.44;5068830;27;19924;-70
2024/01/21 07:38:37;;;;;;;;;;;;;;;-140.72;0.00;52532.91;5089330;27;20269;-71
2024/01/21 07:41:03;;;;;;;;;;;;;;;-140.72;0.00;52545.06;5106538;27;20338;-73
2024/01/21 07:43:29;;;;;;;;;;;;;;;-140.72;0.00;52532.91;5071014;27;19920;-71
2024/01/21 07:45:54;;;;;;;;;;;;;;;-140.72;0.00;52573.50;5097358;27;19950;-71
2024/01/21 07:48:19;;;;;;;;;;;;;;;-140.72;0.00;52567.41;5097773;27;19919;-71
2024/01/21 07:50:44;;;;;;;;;;;;;;;-140.72;0.00;52563.34;5078650;27;19919;-70
2024/01/21 07:53:10;;;;;;;;;;;;;;;-140.72;0.00;52553.19;5088864;27;20309;-71
2024/01/21 07:55:37;;;;;;;;;;;;;;;-140.72;0.00;52597.84;5101302;27;19964;-71
2024/01/21 07:58:02;;;;;;;;;;;;;;;-140.72;0.00;52553.19;5116339;27;19935;-71
2024/01/21 08:00:27;;;;;;;;;;;;;;;-140.72;0.00;52559.28;5104675;27;19929;-71
2024/01/21 08:02:52;;;;;;;;;;;;;;;-140.72;0.00;52559.28;5099872;27;19942;-69
2024/01/21 08:05:18;;;;;;;;;;;;;;;-140.72;0.00;52634.38;5131023;27;19926;-70
2024/01/21 08:07:43;;;;;;;;;;;;;;;-140.72;0.00;52555.22;5098666;27;20323;-69
2024/01/21 08:10:09;;;;;;;;;;;;;;;-140.72;0.00;52563.34;5075464;27;19925;-70
2024/01/21 08:12:34;;;;;;;;;;;;;;;-140.72;0.00;52565.38;5106765;27;19998;-70
2024/01/21 08:14:59;;;;;;;;;;;;;;;-140.72;0.00;52557.25;5079189;27;20001;-70
2024/01/21 08:17:25;;;;;;;;;;;;;;;-140.72;0.00;52569.44;5097239;27;20255;-70
2024/01/21 08:19:50;;;;;;;;;;;;;;;-140.72;0.00;52577.53;5077962;27;19943;-70
2024/01/21 08:22:15;;;;;;;;;;;;;;;-140.72;0.00;52541.03;5092873;27;20317;-70
2024/01/21 08:24:41;;;;;;;;;;;;;;;-140.72;0.00;52547.09;5075524;27;19923;-70
2024/01/21 08:27:06;;;;;;;;;;;;;;;-140.72;0.00;52520.72;5097095;27;19926;-70
2024/01/21 08:29:32;;;;;;;;;;;;;;;-140.72;0.00;52571.47;5089944;27;19921;-70
2024/01/21 08:31:59;;;;;;;;;;;;;;;-140.72;0.00;52569.44;5081706;27;19932;-72
2024/01/21 08:34:24;;;;;;;;;;;;;;;-140.72;0.00;52520.72;5099952;27;20031;-71
2024/01/21 08:36:49;;;;;;;;;;;;;;;-140.72;0.00;52545.06;5098057;27;19954;-71
2024/01/21 08:39:14;;;;;;;;;;;;;;;-140.72;0.00;52553.19;5093905;27;19976;-71
2024/01/21 08:41:42;;;;;;;;;;;;;;;-140.72;0.00;52496.38;5088204;27;20060;-72
2024/01/21 08:44:08;;;;;;;;;;;;;;;-140.72;0.00;52589.72;5057597;27;19973;-70
2024/01/21 08:46:33;;;;;;;;;;;;;;;-140.72;0.00;52547.09;5111247;27;20260;-71
2024/01/21 08:48:59;;;;;;;;;;;;;;;-140.72;0.00;52541.03;5120228;27;20297;-73
2024/01/21 08:51:24;;;;;;;;;;;;;;;-140.72;0.00;52514.63;5111624;27;19926;-71
2024/01/21 08:53:56;;;;;;;;;;;;;;;-140.72;0.00;52504.50;5078801;27;20502;-71
2024/01/21 08:56:23;;;;;;;;;;;;;;;-140.72;0.00;52561.31;5099597;27;19920;-70
2024/01/21 08:58:49;;;;;;;;;;;;;;;-140.72;0.00;52587.69;5079054;27;20378;-70
2024/01/21 09:01:15;;;;;;;;;;;;;;;-140.72;0.00;52541.03;5084322;27;19925;-72
2024/01/21 09:03:40;;;;;;;;;;;;;;;-140.72;0.00;52506.53;5067919;27;19920;-71
2024/01/21 09:06:05;;;;;;;;;;;;;;;-140.72;0.00;52514.63;5084503;27;20011;-71
2024/01/21 09:08:30;;;;;;;;;;;;;;;-140.72;0.00;52547.09;5098758;27;19955;-71
2024/01/21 09:10:56;;;;;;;;;;;;;;;-140.72;0.00;52541.03;5091600;27;20342;-71
2024/01/21 09:13:21;;;;;;;;;;;;;;;-140.72;0.00;52512.59;5069105;27;20281;-72
2024/01/21 09:15:46;;;;;;;;;;;;;;;-140.72;0.00;52549.13;5109260;27;19929;-71
2024/01/21 09:18:11;;;;;;;;;;;;;;;-140.72;0.00;52573.50;5081129;27;19961;-72
2024/01/21 09:20:37;;;;;;;;;;;;;;;-140.72;0.00;52514.63;5075671;27;20019;-72
2024/01/21 09:23:02;;;;;;;;;;;;;;;-140.72;0.00;52549.13;5108442;27;19920;-71
2024/01/21 09:25:27;;;;;;;;;;;;;;;-140.72;0.00;52557.25;5096807;27;19916;-70
2024/01/21 09:27:53;;;;;;;;;;;;;;;-140.72;0.00;52581.59;5077689;27;19923;-71
2024/01/21 09:30:18;;;;;;;;;;;;;;;-140.72;0.00;52528.84;5111899;27;19925;-71
2024/01/21 09:32:43;;;;;;;;;;;;;;;-140.72;0.00;52539.00;5097386;27;19919;-71
2024/01/21 09:35:08;;;;;;;;;;;;;;;-140.72;0.00;52530.88;5087419;27;19919;-71
2024/01/21 09:37:33;;;;;;;;;;;;;;;-140.72;0.00;52524.78;5078309;27;19929;-71
2024/01/21 09:39:59;;;;;;;;;;;;;;;-140.72;0.00;52526.81;5097239;27;19921;-72
2024/01/21 09:42:24;;;;;;;;;;;;;;;-140.72;0.00;52549.13;5056614;27;19921;-72
2024/01/21 09:44:49;;;;;;;;;;;;;;;-140.72;0.00;52522.75;5092134;27;19923;-72
2024/01/21 09:47:14;;;;;;;;;;;;;;;-140.72;0.00;52569.44;5064348;27;20347;-72
2024/01/21 09:49:40;;;;;;;;;;;;;;;-140.72;0.00;52500.44;5081831;27;19966;-71
2024/01/21 09:52:05;;;;;;;;;;;;;;;-140.72;0.00;52524.78;5062686;27;19920;-72
2024/01/21 09:54:31;;;;;;;;;;;;;;;-140.72;0.00;52492.31;5103240;27;19923;-72
2024/01/21 09:56:56;;;;;;;;;;;;;;;-140.72;0.00;52524.78;5066576;27;19924;-72
2024/01/21 09:59:21;;;;;;;;;;;;;;;-140.72;0.00;52559.28;5080404;27;19932;-71
2024/01/21 10:01:47;;;;;;;;;;;;;;;-140.72;0.00;52524.78;5072508;27;19932;-73
2024/01/21 10:04:15;;;;;;;;;;;;;;;-140.72;0.00;52539.00;5079141;27;20002;-73
2024/01/21 10:06:41;;;;;;;;;;;;;;;-140.72;0.00;52512.59;5053850;27;20029;-72
2024/01/21 10:09:20;;;;;;;;;;;;;;;-140.72;0.00;52518.69;5103245;27;20395;-71
2024/01/21 10:11:56;;;;;;;;;;;;;;;-140.72;0.00;52583.63;5102772;27;19984;-71
2024/01/21 10:14:22;;;;;;;;;;;;;;;-140.72;0.00;52508.56;5073964;27;19921;-72
2024/01/21 10:16:49;;;;;;;;;;;;;;;-140.72;0.00;52504.50;5080103;27;19976;-71
2024/01/21 10:19:15;;;;;;;;;;;;;;;-140.72;0.00;52557.25;5098173;27;20214;-71
2024/01/21 10:21:41;;;;;;;;;;;;;;;-140.72;0.00;52557.25;5078801;27;19934;-72
2024/01/21 10:24:10;;;;;;;;;;;;;;;-140.72;0.00;52524.78;5072494;27;19964;-72
2024/01/21 10:26:41;;;;;;;;;;;;;;;-140.72;0.00;52530.88;5092328;27;20261;-72
2024/01/21 10:29:06;;;;;;;;;;;;;;;-140.72;0.00;52528.84;5098907;27;20023;-71
2024/01/21 10:31:32;;;;;;;;;;;;;;;-140.72;0.00;52530.88;5096921;27;19992;-72
2024/01/21 10:33:57;;;;;;;;;;;;;;;-140.72;0.00;52530.88;5115716;27;20408;-72
2024/01/21 10:36:23;;;;;;;;;;;;;;;-140.72;0.00;52520.72;5082472;27;20298;-72
2024/01/21 10:38:49;;;;;;;;;;;;;;;-140.72;0.00;52545.06;5088397;27;19929;-72
2024/01/21 10:41:21;;;;;;;;;;;;;;;-140.72;0.00;52557.25;5078294;27;20375;-71
2024/01/21 10:43:47;;;;;;;;;;;;;;;-140.72;0.00;52553.19;5077222;27;20283;-71
2024/01/21 10:46:12;;;;;;;;;;;;;;;-140.72;0.00;52553.19;5081312;27;19936;-72
2024/01/21 10:48:38;;;;;;;;;;;;;;;-140.72;0.00;52553.19;5084387;27;19921;-71
2024/01/21 10:51:04;;;;;;;;;;;;;;;-140.72;0.00;52510.59;5099881;27;19909;-71
2024/01/21 10:53:31;;;;;;;;;;;;;;;-140.72;0.00;52530.88;5130975;27;20492;-71
2024/01/21 10:55:57;;;;;;;;;;;;;;;-140.72;0.00;52545.06;5098021;27;19932;-70
2024/01/21 10:58:22;;;;;;;;;;;;;;;-140.72;0.00;52534.94;5084104;27;20401;-70
2024/01/21 11:00:50;;;;;;;;;;;;;;;-140.72;0.00;52514.63;5080442;27;19927;-70
2024/01/21 11:03:31;;;;;;;;;;;;;;;-140.72;0.00;52536.97;5074910;27;20263;-71
2024/01/21 11:05:56;;;;;;;;;;;;;;;-140.72;0.00;52549.13;5090675;27;20015;-71
2024/01/21 11:08:22;;;;;;;;;;;;;;;-140.72;0.00;52502.47;5082870;27;19920;-70
2024/01/21 11:11:06;;;;;;;;;;;;;;;-140.72;0.00;52528.84;5087823;27;19982;-72
2024/01/21 11:13:47;;;;;;;;;;;;;;;-140.72;0.00;52526.81;5080450;27;20013;-71
2024/01/21 11:16:31;;;;;;;;;;;;;;;-140.72;0.00;52522.75;5082208;27;19920;-71
2024/01/21 11:19:08;;;;;;;;;;;;;;;-140.72;0.00;52549.13;5099684;27;19919;-71
2024/01/21 11:21:38;;;;;;;;;;;;;;;-140.72;0.00;52532.91;5080901;27;19920;-70
2024/01/21 11:24:05;;;;;;;;;;;;;;;-140.72;0.00;52506.53;5091127;27;20478;-71
2024/01/21 11:26:31;;;;;;;;;;;;;;;-140.72;0.00;52522.75;5089233;27;20079;-72
2024/01/21 11:28:58;;;;;;;;;;;;;;;-140.72;0.00;52526.81;5079165;27;19928;-73
2024/01/21 11:31:23;;;;;;;;;;;;;;;-140.72;0.00;52561.31;5088633;27;20411;-74
2024/01/21 11:34:04;;;;;;;;;;;;;;;-140.72;0.00;52528.84;5114346;27;19921;-74
2024/01/21 11:36:30;;;;;;;;;;;;;;;-140.72;0.00;52512.59;5082956;27;20009;-75
2024/01/21 11:38:56;;;;;;;;;;;;;;;-140.72;0.00;52524.78;5092329;27;19958;-72
2024/01/21 11:41:27;;;;;;;;;;;;;;;-140.72;0.00;52536.97;5086165;27;19927;-79
2024/01/21 11:43:52;;;;;;;;;;;;;;;-140.72;0.00;52545.06;5074141;27;19921;-70
2024/01/21 11:46:18;;;;;;;;;;;;;;;-140.72;0.00;52530.88;5100304;27;19926;-72
2024/01/21 11:48:43;;;;;;;;;;;;;;;-140.72;0.00;52463.91;5103008;27;19927;-73
2024/01/21 11:51:08;;;;;;;;;;;;;;;-140.72;0.00;52500.44;5112879;27;19927;-70
2024/01/21 11:53:33;;;;;;;;;;;;;;;-140.72;0.00;52506.53;5084528;27;19943;-72
2024/01/21 11:55:59;;;;;;;;;;;;;;;-140.72;0.00;52534.94;5093233;27;19929;-72
2024/01/21 11:58:24;;;;;;;;;;;;;;;-140.72;0.00;52498.41;5119057;27;19926;-72
2024/01/21 12:00:49;;;;;;;;;;;;;;;-140.72;0.00;52541.03;5100944;27;20003;-73
2024/01/21 12:03:14;;;;;;;;;;;;;;;-140.72;0.00;52492.31;5074919;27;19963;-73
2024/01/21 12:05:43;;;;;;;;;;;;;;;-140.72;0.00;52463.91;5125631;27;20022;-72
2024/01/21 12:08:10;;;;;;;;;;;;;;;-140.72;0.00;52518.69;5095482;27;20380;-71
2024/01/21 12:10:36;;;;;;;;;;;;;;;-140.72;0.00;52516.66;5086350;27;19920;-70
2024/01/21 12:13:07;;;;;;;;;;;;;;;-140.72;0.00;52459.84;5077788;27;19942;-71
2024/01/21 12:15:35;;;;;;;;;;;;;;;-140.72;0.00;52510.59;5086669;27;20277;-70
2024/01/21 12:18:00;;;;;;;;;;;;;;;-140.72;0.00;52534.94;5088280;27;19921;-70
2024/01/21 12:20:25;;;;;;;;;;;;;;;-140.72;0.00;52524.78;5098641;27;19924;-71
2024/01/21 12:22:51;;;;;;;;;;;;;;;-140.72;0.00;52545.06;5102563;27;20020;-71
2024/01/21 12:25:17;;;;;;;;;;;;;;;-140.72;0.00;52534.94;5076975;27;20373;-73
2024/01/21 12:27:46;;;;;;;;;;;;;;;-140.72;0.00;52516.66;5103297;27;19933;-72